sensor_id;sensor_type;location;lat;lon;timestamp;temperature;humidity
13496;DHT22;6820;49.374;8.452;2022-09-17T00:04:09;12.67;99.99
13496;DHT22;6820;49.374;8.452;2022-09-17T00:08:14;12.66;99.99
13496;DHT22;6820;49.374;8.452;2022-09-17T00:12:16;12.66;99.99
13496;DHT22;6820;49.374;8.452;2022-09-17T00:16:29;12.61;99.99
13496;DHT22;6820;49.374;8.452;2022-09-17T00:20:36;12.49;99.99
13496;DHT22;6820;49.374;8.452;2022-09-17T00:24:43;12.40;99.99
13496;DHT22;6820;49.374;8.452;2022-09-17T00:28:51;12.44;99.99
13496;DHT22;6820;49.374;8.452;2022-09-17T00:32:54;12.51;99.99
13496;DHT22;6820;49.374;8.452;2022-09-17T00:36:58;12.59;99.99
13496;DHT22;6820;49.374;8.452;2022-09-17T00:41:04;12.58;99.99
13496;DHT22;6820;49.374;8.452;2022-09-17T00:45:08;12.56;99.99
13496;DHT22;6820;49.374;8.452;2022-09-17T00:49:21;12.55;99.99
13496;DHT22;6820;49.374;8.452;2022-09-17T00:53:31;12.56;99.99
13496;DHT22;6820;49.374;8.452;2022-09-17T00:57:36;12.59;99.99
13496;DHT22;6820;49.374;8.452;2022-09-17T01:01:45;12.55;99.99
13496;DHT22;6820;49.374;8.452;2022-09-17T01:05:49;12.55;99.99
13496;DHT22;6820;49.374;8.452;2022-09-17T01:14:46;12.44;99.99
13496;DHT22;6820;49.374;8.452;2022-09-17T01:36:05;12.22;99.99
13496;DHT22;6820;49.374;8.452;2022-09-17T01:40:39;12.08;99.99
13496;DHT22;6820;49.374;8.452;2022-09-17T01:44:52;11.85;99.99
13496;DHT22;6820;49.374;8.452;2022-09-17T01:49:04;11.79;99.99
13496;DHT22;6820;49.374;8.452;2022-09-17T01:53:13;11.70;99.99
13496;DHT22;6820;49.374;8.452;2022-09-17T01:57:31;11.69;99.99
13496;DHT22;6820;49.374;8.452;2022-09-17T02:01:37;11.70;99.99
13496;DHT22;6820;49.374;8.452;2022-09-17T02:14:37;11.54;99.99
13496;DHT22;6820;49.374;8.452;2022-09-17T02:23:01;11.54;99.99
13496;DHT22;6820;49.374;8.452;2022-09-17T02:31:46;11.48;99.99
13496;DHT22;6820;49.374;8.452;2022-09-17T02:35:51;11.33;99.99
13496;DHT22;6820;49.374;8.452;2022-09-17T02:39:54;11.21;99.99
13496;DHT22;6820;49.374;8.452;2022-09-17T02:44:07;11.13;99.99
13496;DHT22;6820;49.374;8.452;2022-09-17T02:48:36;11.06;99.99
13496;DHT22;6820;49.374;8.452;2022-09-17T02:53:09;11.05;99.99
13496;DHT22;6820;49.374;8.452;2022-09-17T02:57:34;11.05;99.99
13496;DHT22;6820;49.374;8.452;2022-09-17T03:01:48;11.02;99.99
13496;DHT22;6820;49.374;8.452;2022-09-17T03:06:00;11.01;99.99
13496;DHT22;6820;49.374;8.452;2022-09-17T03:10:03;11.06;99.99
13496;DHT22;6820;49.374;8.452;2022-09-17T03:14:06;11.13;99.99
13496;DHT22;6820;49.374;8.452;2022-09-17T03:18:08;11.05;99.99
13496;DHT22;6820;49.374;8.452;2022-09-17T03:22:13;11.05;99.99
13496;DHT22;6820;49.374;8.452;2022-09-17T03:26:15;11.11;99.99
13496;DHT22;6820;49.374;8.452;2022-09-17T03:30:18;11.12;99.99
13496;DHT22;6820;49.374;8.452;2022-09-17T03:34:20;11.13;99.99
13496;DHT22;6820;49.374;8.452;2022-09-17T03:38:22;11.12;99.99
13496;DHT22;6820;49.374;8.452;2022-09-17T03:42:25;11.11;99.99
13496;DHT22;6820;49.374;8.452;2022-09-17T03:46:27;11.11;99.99
13496;DHT22;6820;49.374;8.452;2022-09-17T03:50:32;11.06;99.99
13496;DHT22;6820;49.374;8.452;2022-09-17T03:54:37;11.02;99.99
13496;DHT22;6820;49.374;8.452;2022-09-17T03:58:52;11.05;99.99
13496;DHT22;6820;49.374;8.452;2022-09-17T04:03:01;10.99;99.99
13496;DHT22;6820;49.374;8.452;2022-09-17T04:07:06;11.05;99.99
13496;DHT22;6820;49.374;8.452;2022-09-17T04:11:09;11.05;99.99
13496;DHT22;6820;49.374;8.452;2022-09-17T04:15:11;11.08;99.99
13496;DHT22;6820;49.374;8.452;2022-09-17T04:19:16;11.09;99.99
13496;DHT22;6820;49.374;8.452;2022-09-17T04:23:20;11.09;99.99
13496;DHT22;6820;49.374;8.452;2022-09-17T04:27:23;11.06;99.99
13496;DHT22;6820;49.374;8.452;2022-09-17T04:31:25;11.12;99.99
13496;DHT22;6820;49.374;8.452;2022-09-17T04:35:29;11.16;99.99
13496;DHT22;6820;49.374;8.452;2022-09-17T04:39:33;11.13;99.99
13496;DHT22;6820;49.374;8.452;2022-09-17T04:43:36;11.16;99.99
13496;DHT22;6820;49.374;8.452;2022-09-17T04:47:38;11.16;99.99
13496;DHT22;6820;49.374;8.452;2022-09-17T04:51:43;11.19;99.99
13496;DHT22;6820;49.374;8.452;2022-09-17T04:55:48;11.26;99.99
13496;DHT22;6820;49.374;8.452;2022-09-17T04:59:52;11.28;99.99
13496;DHT22;6820;49.374;8.452;2022-09-17T05:03:54;11.26;99.99
13496;DHT22;6820;49.374;8.452;2022-09-17T05:08:03;11.31;99.99
13496;DHT22;6820;49.374;8.452;2022-09-17T05:12:11;11.27;99.99
13496;DHT22;6820;49.374;8.452;2022-09-17T05:16:13;11.31;99.99
13496;DHT22;6820;49.374;8.452;2022-09-17T05:20:21;11.31;99.99
13496;DHT22;6820;49.374;8.452;2022-09-17T05:24:23;11.31;99.99
13496;DHT22;6820;49.374;8.452;2022-09-17T05:28:26;11.31;99.99
13496;DHT22;6820;49.374;8.452;2022-09-17T05:32:30;11.39;99.99
13496;DHT22;6820;49.374;8.452;2022-09-17T05:36:33;11.35;99.99
13496;DHT22;6820;49.374;8.452;2022-09-17T05:40:40;11.42;99.99
13496;DHT22;6820;49.374;8.452;2022-09-17T05:44:45;11.48;99.99
13496;DHT22;6820;49.374;8.452;2022-09-17T05:48:48;11.54;99.99
13496;DHT22;6820;49.374;8.452;2022-09-17T05:53:05;11.57;99.99
13496;DHT22;6820;49.374;8.452;2022-09-17T05:57:12;11.63;99.99
13496;DHT22;6820;49.374;8.452;2022-09-17T06:01:19;11.67;99.99
13496;DHT22;6820;49.374;8.452;2022-09-17T06:05:21;11.75;99.99
13496;DHT22;6820;49.374;8.452;2022-09-17T06:09:24;11.81;99.99
13496;DHT22;6820;49.374;8.452;2022-09-17T06:13:32;11.79;99.99
13496;DHT22;6820;49.374;8.452;2022-09-17T06:17:37;11.82;99.99
13496;DHT22;6820;49.374;8.452;2022-09-17T06:21:42;11.88;99.99
13496;DHT22;6820;49.374;8.452;2022-09-17T06:25:49;11.98;99.99
13496;DHT22;6820;49.374;8.452;2022-09-17T06:29:59;12.03;99.99
13496;DHT22;6820;49.374;8.452;2022-09-17T06:34:01;12.12;99.99
13496;DHT22;6820;49.374;8.452;2022-09-17T06:38:05;12.15;99.99
13496;DHT22;6820;49.374;8.452;2022-09-17T06:42:07;12.19;99.99
13496;DHT22;6820;49.374;8.452;2022-09-17T06:46:09;12.29;99.99
13496;DHT22;6820;49.374;8.452;2022-09-17T06:50:11;12.30;99.99
13496;DHT22;6820;49.374;8.452;2022-09-17T06:54:12;12.34;99.99
13496;DHT22;6820;49.374;8.452;2022-09-17T06:58:14;12.37;99.99
13496;DHT22;6820;49.374;8.452;2022-09-17T07:02:15;12.48;99.99
13496;DHT22;6820;49.374;8.452;2022-09-17T07:06:17;12.55;99.99
13496;DHT22;6820;49.374;8.452;2022-09-17T07:10:19;12.69;99.99
13496;DHT22;6820;49.374;8.452;2022-09-17T07:14:21;12.81;99.99
13496;DHT22;6820;49.374;8.452;2022-09-17T07:18:25;12.92;99.99
13496;DHT22;6820;49.374;8.452;2022-09-17T07:22:27;13.09;99.99
13496;DHT22;6820;49.374;8.452;2022-09-17T07:26:28;13.16;99.99
13496;DHT22;6820;49.374;8.452;2022-09-17T07:30:30;13.16;99.99
13496;DHT22;6820;49.374;8.452;2022-09-17T07:34:31;13.19;99.99
13496;DHT22;6820;49.374;8.452;2022-09-17T07:38:33;13.21;99.99
13496;DHT22;6820;49.374;8.452;2022-09-17T07:42:35;13.14;99.99
13496;DHT22;6820;49.374;8.452;2022-09-17T07:46:36;13.04;99.99
13496;DHT22;6820;49.374;8.452;2022-09-17T07:50:38;12.95;99.99
13496;DHT22;6820;49.374;8.452;2022-09-17T07:54:40;12.94;99.99
13496;DHT22;6820;49.374;8.452;2022-09-17T07:58:41;13.01;99.99
13496;DHT22;6820;49.374;8.452;2022-09-17T08:02:43;13.16;99.99
13496;DHT22;6820;49.374;8.452;2022-09-17T08:06:44;13.39;99.99
13496;DHT22;6820;49.374;8.452;2022-09-17T08:10:48;13.65;99.99
13496;DHT22;6820;49.374;8.452;2022-09-17T08:14:50;13.80;99.99
13496;DHT22;6820;49.374;8.452;2022-09-17T08:18:55;13.99;99.99
13496;DHT22;6820;49.374;8.452;2022-09-17T08:22:58;14.13;99.99
13496;DHT22;6820;49.374;8.452;2022-09-17T08:27:00;14.27;99.99
13496;DHT22;6820;49.374;8.452;2022-09-17T08:31:06;14.46;99.99
13496;DHT22;6820;49.374;8.452;2022-09-17T08:35:08;14.61;99.99
13496;DHT22;6820;49.374;8.452;2022-09-17T08:39:11;14.71;99.99
13496;DHT22;6820;49.374;8.452;2022-09-17T08:43:15;14.87;99.99
13496;DHT22;6820;49.374;8.452;2022-09-17T08:47:24;15.01;99.99
13496;DHT22;6820;49.374;8.452;2022-09-17T08:51:35;15.03;99.99
13496;DHT22;6820;49.374;8.452;2022-09-17T08:56:09;15.35;99.99
13496;DHT22;6820;49.374;8.452;2022-09-17T09:00:15;15.33;99.99
13496;DHT22;6820;49.374;8.452;2022-09-17T09:04:30;15.12;99.99
13496;DHT22;6820;49.374;8.452;2022-09-17T09:08:55;15.01;99.99
13496;DHT22;6820;49.374;8.452;2022-09-17T09:12:59;14.91;99.99
13496;DHT22;6820;49.374;8.452;2022-09-17T09:17:04;15.20;99.99
13496;DHT22;6820;49.374;8.452;2022-09-17T09:21:13;15.51;99.99
13496;DHT22;6820;49.374;8.452;2022-09-17T09:25:19;15.62;99.99
13496;DHT22;6820;49.374;8.452;2022-09-17T09:34:03;15.62;99.99
13496;DHT22;6820;49.374;8.452;2022-09-17T09:42:12;15.27;99.99
13496;DHT22;6820;49.374;8.452;2022-09-17T09:59:27;15.34;99.99
13496;DHT22;6820;49.374;8.452;2022-09-17T10:03:29;15.38;99.99
13496;DHT22;6820;49.374;8.452;2022-09-17T10:07:33;15.41;99.99
13496;DHT22;6820;49.374;8.452;2022-09-17T10:11:57;15.81;99.99
13496;DHT22;6820;49.374;8.452;2022-09-17T10:16:14;16.16;99.99
13496;DHT22;6820;49.374;8.452;2022-09-17T10:20:18;16.29;99.99
13496;DHT22;6820;49.374;8.452;2022-09-17T10:24:24;16.27;99.99
13496;DHT22;6820;49.374;8.452;2022-09-17T10:28:42;16.30;99.99
13496;DHT22;6820;49.374;8.452;2022-09-17T10:37:51;16.78;99.99
13496;DHT22;6820;49.374;8.452;2022-09-17T10:41:55;17.07;99.99
13496;DHT22;6820;49.374;8.452;2022-09-17T10:45:58;17.27;99.99
13496;DHT22;6820;49.374;8.452;2022-09-17T10:50:01;17.51;99.99
13496;DHT22;6820;49.374;8.452;2022-09-17T11:02:24;17.42;99.99
13496;DHT22;6820;49.374;8.452;2022-09-17T11:06:37;17.17;99.99
13496;DHT22;6820;49.374;8.452;2022-09-17T11:40:59;16.98;99.99
13496;DHT22;6820;49.374;8.452;2022-09-17T11:45:10;17.10;99.99
13496;DHT22;6820;49.374;8.452;2022-09-17T11:49:24;16.96;99.99
13496;DHT22;6820;49.374;8.452;2022-09-17T11:57:40;16.84;99.99
13496;DHT22;6820;49.374;8.452;2022-09-17T12:01:52;16.92;99.99
13496;DHT22;6820;49.374;8.452;2022-09-17T12:06:15;17.14;99.99
13496;DHT22;6820;49.374;8.452;2022-09-17T12:22:58;16.78;99.99
13496;DHT22;6820;49.374;8.452;2022-09-17T12:27:08;16.52;99.99
13496;DHT22;6820;49.374;8.452;2022-09-17T12:31:22;16.81;99.99
13496;DHT22;6820;49.374;8.452;2022-09-17T12:36:00;16.78;99.99
13496;DHT22;6820;49.374;8.452;2022-09-17T12:58:31;17.17;99.99
13496;DHT22;6820;49.374;8.452;2022-09-17T13:02:51;17.53;99.99
13496;DHT22;6820;49.374;8.452;2022-09-17T13:07:22;17.65;99.99
13496;DHT22;6820;49.374;8.452;2022-09-17T13:15:58;18.09;99.99
13496;DHT22;6820;49.374;8.452;2022-09-17T13:20:25;18.26;99.99
13496;DHT22;6820;49.374;8.452;2022-09-17T13:24:32;17.91;99.99
13496;DHT22;6820;49.374;8.452;2022-09-17T13:28:44;17.77;99.99
13496;DHT22;6820;49.374;8.452;2022-09-17T13:32:49;18.01;99.99
13496;DHT22;6820;49.374;8.452;2022-09-17T13:36:52;18.21;99.99
13496;DHT22;6820;49.374;8.452;2022-09-17T13:41:16;18.32;99.99
13496;DHT22;6820;49.374;8.452;2022-09-17T13:45:20;18.57;99.99
13496;DHT22;6820;49.374;8.452;2022-09-17T13:49:23;18.78;99.99
13496;DHT22;6820;49.374;8.452;2022-09-17T13:53:25;18.57;99.99
13496;DHT22;6820;49.374;8.452;2022-09-17T13:57:28;18.75;99.99
13496;DHT22;6820;49.374;8.452;2022-09-17T14:01:54;18.49;99.99
13496;DHT22;6820;49.374;8.452;2022-09-17T14:10:30;17.91;99.99
13496;DHT22;6820;49.374;8.452;2022-09-17T14:14:39;17.62;99.99
13496;DHT22;6820;49.374;8.452;2022-09-17T14:18:57;17.49;99.99
13496;DHT22;6820;49.374;8.452;2022-09-17T14:23:02;17.46;99.99
13496;DHT22;6820;49.374;8.452;2022-09-17T14:31:34;17.62;99.99
13496;DHT22;6820;49.374;8.452;2022-09-17T14:35:38;17.80;99.99
13496;DHT22;6820;49.374;8.452;2022-09-17T14:39:48;18.14;99.99
13496;DHT22;6820;49.374;8.452;2022-09-17T14:48:28;18.42;99.99
13496;DHT22;6820;49.374;8.452;2022-09-17T14:52:31;18.72;98.39
13496;DHT22;6820;49.374;8.452;2022-09-17T14:56:33;18.51;99.99
13496;DHT22;6820;49.374;8.452;2022-09-17T15:00:40;18.23;99.99
13496;DHT22;6820;49.374;8.452;2022-09-17T15:04:52;17.89;99.54
13496;DHT22;6820;49.374;8.452;2022-09-17T15:08:55;17.66;99.99
13496;DHT22;6820;49.374;8.452;2022-09-17T15:12:57;17.39;99.99
13496;DHT22;6820;49.374;8.452;2022-09-17T15:16:59;17.27;99.99
13496;DHT22;6820;49.374;8.452;2022-09-17T15:21:04;17.03;99.99
13496;DHT22;6820;49.374;8.452;2022-09-17T15:25:16;16.92;99.99
13496;DHT22;6820;49.374;8.452;2022-09-17T15:29:25;16.90;99.99
13496;DHT22;6820;49.374;8.452;2022-09-17T15:33:31;16.87;99.99
13496;DHT22;6820;49.374;8.452;2022-09-17T15:37:34;16.70;99.99
13496;DHT22;6820;49.374;8.452;2022-09-17T15:42:16;16.57;99.99
13496;DHT22;6820;49.374;8.452;2022-09-17T15:46:23;16.66;99.99
13496;DHT22;6820;49.374;8.452;2022-09-17T15:50:34;16.73;99.99
13496;DHT22;6820;49.374;8.452;2022-09-17T15:54:49;16.70;99.99
13496;DHT22;6820;49.374;8.452;2022-09-17T15:58:52;16.55;99.99
13496;DHT22;6820;49.374;8.452;2022-09-17T16:03:20;16.37;99.99
13496;DHT22;6820;49.374;8.452;2022-09-17T16:07:39;16.26;99.99
13496;DHT22;6820;49.374;8.452;2022-09-17T16:11:41;16.04;99.99
13496;DHT22;6820;49.374;8.452;2022-09-17T16:15:44;15.92;99.99
13496;DHT22;6820;49.374;8.452;2022-09-17T16:19:46;15.81;99.99
13496;DHT22;6820;49.374;8.452;2022-09-17T16:23:47;15.78;99.99
13496;DHT22;6820;49.374;8.452;2022-09-17T16:31:58;16.03;99.99
13496;DHT22;6820;49.374;8.452;2022-09-17T16:35:59;15.95;99.99
13496;DHT22;6820;49.374;8.452;2022-09-17T16:40:01;15.91;99.99
13496;DHT22;6820;49.374;8.452;2022-09-17T16:44:03;15.80;99.99
13496;DHT22;6820;49.374;8.452;2022-09-17T16:48:05;15.68;99.99
13496;DHT22;6820;49.374;8.452;2022-09-17T16:52:06;15.66;99.99
13496;DHT22;6820;49.374;8.452;2022-09-17T16:56:09;15.53;99.99
13496;DHT22;6820;49.374;8.452;2022-09-17T17:00:14;15.46;99.99
13496;DHT22;6820;49.374;8.452;2022-09-17T17:04:19;15.34;99.99
13496;DHT22;6820;49.374;8.452;2022-09-17T17:08:21;15.31;99.99
13496;DHT22;6820;49.374;8.452;2022-09-17T17:12:23;15.31;99.99
13496;DHT22;6820;49.374;8.452;2022-09-17T17:16:25;15.19;99.99
13496;DHT22;6820;49.374;8.452;2022-09-17T17:20:26;15.04;99.99
13496;DHT22;6820;49.374;8.452;2022-09-17T17:24:28;14.95;99.99
13496;DHT22;6820;49.374;8.452;2022-09-17T17:28:30;14.93;99.99
13496;DHT22;6820;49.374;8.452;2022-09-17T17:32:33;14.87;99.99
13496;DHT22;6820;49.374;8.452;2022-09-17T17:36:35;14.82;99.99
13496;DHT22;6820;49.374;8.452;2022-09-17T17:40:37;14.67;99.99
13496;DHT22;6820;49.374;8.452;2022-09-17T17:44:39;14.67;99.99
13496;DHT22;6820;49.374;8.452;2022-09-17T17:48:41;14.56;99.99
13496;DHT22;6820;49.374;8.452;2022-09-17T17:52:43;14.45;99.99
13496;DHT22;6820;49.374;8.452;2022-09-17T17:56:48;14.39;99.99
13496;DHT22;6820;49.374;8.452;2022-09-17T18:00:50;14.27;99.99
13496;DHT22;6820;49.374;8.452;2022-09-17T18:04:52;14.24;99.99
13496;DHT22;6820;49.374;8.452;2022-09-17T18:08:53;14.13;99.99
13496;DHT22;6820;49.374;8.452;2022-09-17T18:12:55;13.94;99.99
13496;DHT22;6820;49.374;8.452;2022-09-17T18:16:57;13.90;99.99
13496;DHT22;6820;49.374;8.452;2022-09-17T18:20:59;13.81;99.99
13496;DHT22;6820;49.374;8.452;2022-09-17T18:25:02;13.68;99.99
13496;DHT22;6820;49.374;8.452;2022-09-17T18:29:04;13.63;99.99
13496;DHT22;6820;49.374;8.452;2022-09-17T18:33:08;13.62;99.99
13496;DHT22;6820;49.374;8.452;2022-09-17T18:37:10;13.54;99.99
13496;DHT22;6820;49.374;8.452;2022-09-17T18:41:11;13.54;99.99
13496;DHT22;6820;49.374;8.452;2022-09-17T18:45:13;13.51;99.99
13496;DHT22;6820;49.374;8.452;2022-09-17T18:49:15;13.48;99.99
13496;DHT22;6820;49.374;8.452;2022-09-17T18:53:17;13.51;99.99
13496;DHT22;6820;49.374;8.452;2022-09-17T18:57:18;13.54;99.99
13496;DHT22;6820;49.374;8.452;2022-09-17T19:01:20;13.61;99.99
13496;DHT22;6820;49.374;8.452;2022-09-17T19:05:24;13.65;99.99
13496;DHT22;6820;49.374;8.452;2022-09-17T19:09:25;13.66;99.99
13496;DHT22;6820;49.374;8.452;2022-09-17T19:13:31;13.66;99.99
13496;DHT22;6820;49.374;8.452;2022-09-17T19:17:34;13.65;99.99
13496;DHT22;6820;49.374;8.452;2022-09-17T19:21:36;13.59;99.99
13496;DHT22;6820;49.374;8.452;2022-09-17T19:25:37;13.55;99.99
13496;DHT22;6820;49.374;8.452;2022-09-17T19:29:39;13.62;99.99
13496;DHT22;6820;49.374;8.452;2022-09-17T19:33:41;13.63;99.99
13496;DHT22;6820;49.374;8.452;2022-09-17T19:37:43;13.59;99.99
13496;DHT22;6820;49.374;8.452;2022-09-17T19:41:45;13.55;99.99
13496;DHT22;6820;49.374;8.452;2022-09-17T19:45:46;13.55;99.99
13496;DHT22;6820;49.374;8.452;2022-09-17T19:49:48;13.57;99.99
13496;DHT22;6820;49.374;8.452;2022-09-17T19:53:52;13.53;99.99
13496;DHT22;6820;49.374;8.452;2022-09-17T19:57:54;13.55;99.99
13496;DHT22;6820;49.374;8.452;2022-09-17T20:01:55;13.57;99.99
13496;DHT22;6820;49.374;8.452;2022-09-17T20:06:00;13.48;99.99
13496;DHT22;6820;49.374;8.452;2022-09-17T20:10:04;13.38;99.99
13496;DHT22;6820;49.374;8.452;2022-09-17T20:14:06;13.39;99.99
13496;DHT22;6820;49.374;8.452;2022-09-17T20:18:10;13.39;99.99
13496;DHT22;6820;49.374;8.452;2022-09-17T20:22:12;13.38;99.99
13496;DHT22;6820;49.374;8.452;2022-09-17T20:26:13;13.32;99.99
13496;DHT22;6820;49.374;8.452;2022-09-17T20:30:15;13.35;99.99
13496;DHT22;6820;49.374;8.452;2022-09-17T20:34:17;13.29;99.99
13496;DHT22;6820;49.374;8.452;2022-09-17T20:38:19;13.29;99.99
13496;DHT22;6820;49.374;8.452;2022-09-17T20:42:40;13.28;99.99
13496;DHT22;6820;49.374;8.452;2022-09-17T20:46:42;13.19;99.99
13496;DHT22;6820;49.374;8.452;2022-09-17T20:50:52;13.17;99.99
13496;DHT22;6820;49.374;8.452;2022-09-17T20:54:55;13.16;99.99
13496;DHT22;6820;49.374;8.452;2022-09-17T20:58:57;13.17;99.99
13496;DHT22;6820;49.374;8.452;2022-09-17T21:03:09;13.13;99.99
13496;DHT22;6820;49.374;8.452;2022-09-17T21:07:11;13.12;99.99
13496;DHT22;6820;49.374;8.452;2022-09-17T21:11:13;13.10;99.99
13496;DHT22;6820;49.374;8.452;2022-09-17T21:15:15;13.13;99.99
13496;DHT22;6820;49.374;8.452;2022-09-17T21:19:17;13.13;99.99
13496;DHT22;6820;49.374;8.452;2022-09-17T21:23:26;13.13;99.99
13496;DHT22;6820;49.374;8.452;2022-09-17T21:27:29;13.12;99.99
13496;DHT22;6820;49.374;8.452;2022-09-17T21:31:32;13.04;99.99
13496;DHT22;6820;49.374;8.452;2022-09-17T21:35:37;13.06;99.99
13496;DHT22;6820;49.374;8.452;2022-09-17T21:39:38;13.06;99.99
13496;DHT22;6820;49.374;8.452;2022-09-17T21:43:40;13.06;99.99
13496;DHT22;6820;49.374;8.452;2022-09-17T21:47:43;13.07;99.99
13496;DHT22;6820;49.374;8.452;2022-09-17T21:51:44;13.07;99.99
13496;DHT22;6820;49.374;8.452;2022-09-17T21:55:46;13.01;99.99
13496;DHT22;6820;49.374;8.452;2022-09-17T21:59:48;12.94;99.99
13496;DHT22;6820;49.374;8.452;2022-09-17T22:03:49;12.92;99.99
13496;DHT22;6820;49.374;8.452;2022-09-17T22:07:51;12.92;99.99
13496;DHT22;6820;49.374;8.452;2022-09-17T22:11:53;12.87;99.99
13496;DHT22;6820;49.374;8.452;2022-09-17T22:15:58;12.81;99.99
13496;DHT22;6820;49.374;8.452;2022-09-17T22:20:02;12.84;99.99
13496;DHT22;6820;49.374;8.452;2022-09-17T22:24:04;12.84;99.99
13496;DHT22;6820;49.374;8.452;2022-09-17T22:28:06;12.84;99.99
13496;DHT22;6820;49.374;8.452;2022-09-17T22:32:21;12.85;99.99
13496;DHT22;6820;49.374;8.452;2022-09-17T22:36:24;12.88;99.99
13496;DHT22;6820;49.374;8.452;2022-09-17T22:40:26;12.89;99.99
13496;DHT22;6820;49.374;8.452;2022-09-17T22:44:28;12.88;99.99
13496;DHT22;6820;49.374;8.452;2022-09-17T22:48:29;12.89;99.99
13496;DHT22;6820;49.374;8.452;2022-09-17T22:52:31;12.96;99.99
13496;DHT22;6820;49.374;8.452;2022-09-17T22:56:33;12.95;99.99
13496;DHT22;6820;49.374;8.452;2022-09-17T23:00:36;12.95;99.99
13496;DHT22;6820;49.374;8.452;2022-09-17T23:04:37;12.94;99.99
13496;DHT22;6820;49.374;8.452;2022-09-17T23:08:39;12.95;99.99
13496;DHT22;6820;49.374;8.452;2022-09-17T23:12:41;12.98;99.99
13496;DHT22;6820;49.374;8.452;2022-09-17T23:16:43;13.01;99.99
13496;DHT22;6820;49.374;8.452;2022-09-17T23:21:00;13.01;99.99
13496;DHT22;6820;49.374;8.452;2022-09-17T23:25:03;12.99;99.99
13496;DHT22;6820;49.374;8.452;2022-09-17T23:29:05;13.01;99.99
13496;DHT22;6820;49.374;8.452;2022-09-17T23:33:07;13.01;99.99
13496;DHT22;6820;49.374;8.452;2022-09-17T23:37:09;12.98;99.99
13496;DHT22;6820;49.374;8.452;2022-09-17T23:41:14;12.91;99.99
13496;DHT22;6820;49.374;8.452;2022-09-17T23:45:21;12.94;99.99
13496;DHT22;6820;49.374;8.452;2022-09-17T23:49:22;12.91;99.99
13496;DHT22;6820;49.374;8.452;2022-09-17T23:53:24;12.91;99.99
13496;DHT22;6820;49.374;8.452;2022-09-17T23:57:26;12.91;99.99
